x

Half Moon Bay - 24nm Ssw Of San Francisco, Ca (46012) Wave Buoy

2:50pm - Sat 22nd Nov 2014 All times are PST. -8 hours from GMT.

  • Sig Wave height 8.2ft
  • Swell Direction
  • Peak Period 11s
  • Average Period 7s
  • Wind
    20mph, 22mph gusts
  • Sea Temp 60°f
  • Air Temp 62°f
  • Sea Pressure 1020.5mb
  • Half Moon Bay - 24nm Ssw Of San Francisco, Ca
  • Half Moon Bay - 24nm Ssw Of San Francisco, Ca

More Historic Weather Station data

Upgrade to MSW Pro to gain access to the past 30 days of data for over 8000 Wavebouys and Weather Stations around the globe.

Join Pro

Comparision Forecast

View Surf forecast
   
Sat 11/22 2:50pm 8ft 11s 7s 20 22 mph 1020.5mb 60f 62f
1:50pm 7.5ft 9s 7s 18 22 mph 1019.9mb 60f 62f
12:50pm 7ft 11s 7s 16 20 mph 1019.7mb 61f 62f
11:50am 7.5ft 10s 7s 16 18 mph 1019.8mb 61f 62f
10:50am 8ft 10s 7s 16 18 mph 1019.6mb 60f 61f
9:50am 7.5ft 11s 7s 18 22 mph 1019.2mb 60f 62f
8:50am 7.5ft 12s 7s 18 20 mph 1018.5mb 60f 62f
7:50am 7ft 12s 7s 16 20 mph 1018mb 60f 62f
6:50am 8ft 11s 7s 16 18 mph 1018.1mb 60f 62f
5:50am 7.5ft 10s 7s 13 16 mph 1018mb 60f 62f
4:50am 8ft 11s 8s 13 16 mph 1017.8mb 60f 61f
3:50am 7.5ft 11s 7s 13 16 mph 1018.1mb 60f 61f
2:50am 7ft 12s 8s 13 18 mph 1018.4mb 60f 61f
1:50am 7ft 12s 8s 16 18 mph 1018.9mb 60f 60f
12:50am 7ft 11s 8s 16 18 mph 1019.2mb 61f 60f
Fri 11/21 11:50pm 6.5ft 11s 9s 13 16 mph 1019.6mb 61f 61f
10:50pm 7ft 13s 9s 13 16 mph 1019.5mb 61f 61f
9:50pm 7ft 12s 9s 11
mph
1019.4mb 60f 60f
8:50pm 7.5ft 13s 9s 9 11 mph 1019.6mb 60f 60f
6:50pm 8ft 12s 9s 9 11 mph 1019.2mb 60f 60f
5:50pm 8ft 13s 9s 7 9 mph 1019.1mb 60f 60f
4:50pm 8.5ft 12s 9s 7 9 mph 1018.9mb 61f 60f
3:50pm 10ft 13s 9s 4 7 mph 1018.7mb 61f 60f
2:50pm 9.5ft 12s 9s 4 7 mph 1018.5mb 61f 59f
1:50pm 8.5ft 11s 9s 7 9 mph 1018.1mb 61f 59f
12:50pm 7ft 12s 8s 4 7 mph 1018.4mb 61f 59f
11:50am 9ft 14s 9s 4 7 mph 1018.8mb 61f 58f
10:50am 8ft 10s 9s 7 9 mph 1019mb 61f 58f
9:50am 8.5ft 10s 9s 4 9 mph 1018.8mb 61f 59f
8:50am 8ft 10s 8s 2 4 mph 1018.6mb 61f 59f
7:50am 7.5ft 14s 8s 2 4 mph 1018.1mb 61f 59f
6:50am 7ft 14s 8s 4 7 mph 1017.6mb 61f 58f
5:50am 7ft 10s 8s 2 4 mph 1017.2mb 61f 58f
4:50am 7ft 10s 8s 4 7 mph 1017mb 61f 58f
3:50am 6ft 10s 8s 7
mph
1016.9mb 61f 59f
2:50am 6ft 11s 7s 4 7 mph 1016.9mb 61f 59f
1:50am 6ft 10s 7s 4 7 mph 1016.4mb 61f 59f
12:50am 6.5ft 10s 8s 9 11 mph 1016.5mb 61f 60f
Thu 11/20 11:50pm 6.5ft 15s 8s 11
mph
1016.7mb 61f 60f
10:50pm 7ft 11s 8s 7 9 mph 1016.6mb 61f 60f
9:50pm 6.5ft 11s 7s 7 9 mph 1016.4mb 61f 60f
8:50pm 6.5ft 10s 7s 9 11 mph 1016mb 61f 61f
7:50pm 7.5ft 11s 8s 7 11 mph 1015.6mb 61f 60f
6:50pm 7ft 10s 7s 9 11 mph 1015.1mb 61f 60f
5:50pm 7ft 10s 7s 9 13 mph 1015.4mb 61f 60f
4:50pm 8ft 11s 8s 11 13 mph 1015.6mb 61f 59f
3:50pm 7ft 10s 7s 16 20 mph 1015.3mb 61f 60f
2:50pm 9ft 11s 8s 11 18 mph 1015.3mb 61f 58f
1:50pm 8ft 11s 8s 13 16 mph 1015.4mb 61f 59f
12:50pm 8.5ft 11s 8s 11 16 mph 1016mb 61f 58f
11:50am 8ft 11s 9s 9 11 mph 1017.3mb 61f 58f
10:50am 9ft 11s 8s 7 11 mph 1017.6mb 61f 58f
9:50am 8.5ft 11s 8s 11 13 mph 1019mb 61f 60f
8:50am 10ft 11s 8s 11 13 mph 1018.8mb 61f 58f
7:50am 10.5ft 11s 8s 9 11 mph 1018mb 61f 58f
6:50am 11ft 11s 9s 13 16 mph 1017.1mb 61f 58f
5:50am 11.5ft 11s 9s 9 13 mph 1017.5mb 61f 59f
4:50am 12ft 12s 9s 2 4 mph 1018.2mb 61f 60f
3:50am 11.5ft 12s 9s 4 7 mph 1018.6mb 61f 60f
2:50am 11.5ft 12s 9s 2 4 mph 1018.9mb 61f 60f
1:50am 11ft 13s 9s 4 7 mph 1019.6mb 61f 60f
12:50am 10ft 13s 9s 2 4 mph 1019.4mb 61f 60f
Wed 11/19 11:50pm 9.5ft 13s 8s 2 7 mph 1019.6mb 61f 60f
10:50pm 8.5ft 12s 8s 4 7 mph 1020mb 61f 61f
9:50pm 9ft 14s 9s 4 7 mph 1020.1mb 61f 61f
8:50pm 9.5ft 13s 9s 2 4 mph 1019.5mb 61f 61f
7:50pm 9.5ft 14s 8s 7 9 mph 1019.3mb 61f 61f
6:50pm 10ft 13s 9s 9 11 mph 1018.8mb 60f 62f
5:50pm 10ft 14s 8s 7 9 mph 1018.3mb 61f 62f
4:50pm 10ft 14s 8s 9 13 mph 1017.7mb 61f 61f
3:50pm 11.5ft 14s 9s 7 9 mph 1017.3mb 61f 62f
2:50pm 12ft 14s 9s 11 13 mph 1016.6mb 61f 62f
1:50pm 12ft 14s 9s 11 13 mph 1015.9mb 61f 62f
12:50pm 11ft 14s 8s 13 16 mph 1015.7mb 61f 62f
11:50am 12ft 13s 8s 18 22 mph 1015.6mb 60f 61f
10:50am 12ft 13s 8s 25 29 mph 1015.6mb 60f 59f
9:50am 11.5ft 14s 8s 27 31 mph 1015.3mb 60f 59f
8:50am 12ft 13s 8s 25 31 mph 1015mb 60f 59f
7:50am 10.5ft 13s 7s 27 31 mph 1014.3mb 60f 60f
6:50am 11.5ft 11s 7s 27 31 mph 1013.9mb 61f 60f
5:50am 9.5ft 13s 7s 29 36 mph 1013.7mb 61f 60f
4:50am 8.5ft 11s 7s 27 31 mph 1013.7mb 61f 61f
3:50am 8ft 11s 7s 29 34 mph 1014.2mb 61f 59f
2:50am 7.5ft 11s 6s 22 25 mph 1015mb 61f 60f
1:50am 6.5ft 8s 6s 22 27 mph 1015.2mb 61f 61f
12:50am 6.5ft 10s 6s 20 25 mph 1015.8mb 61f 61f